This is the latest recevied weather packets stored in our database for station/object W4SMH. If no packets are shown the sender has not sent any weather packets the latest 10 day(s).
| Time | Temp. | Humidity | Pressure | Rain* | Wind** | Luminosity | Snow |
|---|---|---|---|---|---|---|---|
| 1777684590 | 3.89° C | 73% | 1016.7 hPa | 0 mm | - | 0 W/m² | - |
| 1777684274 | 3.89° C | 73% | 1016.8 hPa | 0 mm | - | 0 W/m² | - |
| 1777683725 | 4.44° C | 72% | 1016.7 hPa | 0 mm | - | 5 W/m² | - |
| 1777683111 | 4.44° C | 72% | 1016.8 hPa | 0 mm | - | 9 W/m² | - |
| 1777682700 | 4.44° C | 71% | 1016.8 hPa | 0 mm | - | 14 W/m² | - |
| 1777682517 | 4.44° C | 71% | 1016.8 hPa | 0 mm | - | 18 W/m² | - |
| 1777682124 | 4.44° C | 71% | 1016.9 hPa | 0 mm | - | 21 W/m² | - |
| 1777681390 | 2.78° C | 91% | 1014.6 hPa | 0 mm | - | 0 W/m² | - |
| 1777681364 | 5° C | 71% | 1016.8 hPa | 0 mm | - | 28 W/m² | - |
| 1777681351 | 3.33° C | 91% | 1014.6 hPa | 0 mm | - | 0 W/m² | - |
| 1777681258 | 5° C | 71% | 1016.8 hPa | 0 mm | - | 37 W/m² | - |
| 1777681234 | 5° C | 71% | 1016.7 hPa | 0 mm | - | 40 W/m² | - |
| 1777680790 | 3.33° C | 91% | 1014.6 hPa | 0 mm | - | 0 W/m² | - |
| 1777680385 | 5° C | 70% | 1016.6 hPa | 0 mm | - | 49 W/m² | - |
| 1777680352 | 3.89° C | 90% | 1015.1 hPa | 0 mm | - | 0 W/m² | - |
| 1777680307 | 5° C | 70% | 1016.6 hPa | 0 mm | - | 49 W/m² | - |
| 1777679885 | 4.44° C | 71% | 1016.6 hPa | 0 mm | - | 77 W/m² | - |
| 1777679671 | 4.44° C | 71% | 1016.7 hPa | 0 mm | - | 114 W/m² | - |
| 1777679632 | 4.44° C | 72% | 1016.6 hPa | 0 mm | - | 134 W/m² | - |
| 1777679596 | 4.44° C | 72% | 1016.7 hPa | 0 mm | - | 139 W/m² | - |
| 1777678810 | 4.44° C | 72% | 1016.6 hPa | 0 mm | - | 65 W/m² | - |
| 1777678513 | 3.89° C | 90% | 1015 hPa | 0 mm | - | 0 W/m² | - |
| 1777678486 | 3.89° C | 89% | 1015 hPa | 0 mm | - | 0 W/m² | - |
| 1777678479 | 3.89° C | 89% | 1015 hPa | 0 mm | - | 0 W/m² | - |
| 1777678468 | 3.89° C | 89% | 1015 hPa | 0 mm | - | 0 W/m² | - |
* Rain latest hour (hover to see other rain measurements)
** Current wind speed in m/s (hover to see current wind gust speed)